Time;durP1;ratioP1;P1;durP2;ratioP2;P2;SDS_P1;SDS_P2;PMS_P1;PMS_P2;Temp;Humidity;BMP_temperature;BMP_pressure;BME280_temperature;BME280_humidity;BME280_pressure;Samples;Min_cycle;Max_cycle;Signal;HPM_P1;HPM_P2
2024/04/03 00:01:32;;;;;;;1.13;0.57;;;;;;;10.83;45.89;94693.00;5036097;28;20029;-80
2024/04/03 00:03:57;;;;;;;0.60;0.40;;;;;;;10.75;46.09;94692.84;5069566;28;20024;-79
2024/04/03 00:06:23;;;;;;;1.73;0.40;;;;;;;10.85;45.98;94693.69;5069407;28;20054;-79
2024/04/03 00:08:48;;;;;;;0.60;0.40;;;;;;;10.80;45.13;94677.69;5036347;28;20414;-80
2024/04/03 00:11:14;;;;;;;1.00;0.32;;;;;;;11.13;45.86;94704.31;5069916;28;20517;-80
2024/04/03 00:13:39;;;;;;;1.67;0.52;;;;;;;11.05;44.83;94691.16;5032064;28;20032;-80
2024/04/03 00:16:05;;;;;;;0.55;0.40;;;;;;;10.84;47.31;94686.06;5066400;28;20037;-79
2024/04/03 00:18:30;;;;;;;0.75;0.40;;;;;;;10.72;47.58;94693.91;5049212;28;20049;-79
2024/04/03 00:21:02;;;;;;;1.63;0.40;;;;;;;10.58;47.42;94698.66;5036997;28;20039;-80
2024/04/03 00:23:28;;;;;;;0.80;0.40;;;;;;;10.67;46.77;94713.44;5069521;28;20044;-80
2024/04/03 00:25:59;;;;;;;1.60;0.60;;;;;;;10.56;46.37;94680.59;5052773;28;20545;-79
2024/04/03 00:28:25;;;;;;;0.80;0.40;;;;;;;10.76;45.85;94712.69;5069126;28;20028;-79
2024/04/03 00:30:51;;;;;;;1.27;0.38;;;;;;;10.74;46.92;94714.59;5057416;28;20031;-80
2024/04/03 00:33:17;;;;;;;0.70;0.43;;;;;;;10.71;46.39;94725.25;5032885;28;20120;-79
2024/04/03 00:35:43;;;;;;;0.95;0.47;;;;;;;10.36;46.04;94671.06;5052149;28;20330;-79
2024/04/03 00:38:09;;;;;;;1.40;0.50;;;;;;;10.92;46.24;94712.19;5052882;28;20044;-78
2024/04/03 00:40:34;;;;;;;1.08;0.50;;;;;;;10.61;46.88;94688.81;5069595;28;20098;-80
2024/04/03 00:43:13;;;;;;;0.73;0.40;;;;;;;10.60;47.23;94717.53;5072919;28;20029;-80
2024/04/03 00:45:39;;;;;;;0.93;0.50;;;;;;;10.62;46.57;94721.66;5060891;28;20025;-80
2024/04/03 00:48:04;;;;;;;1.60;0.60;;;;;;;10.58;47.06;94725.44;5056085;28;20482;-79
2024/04/03 00:50:30;;;;;;;1.83;0.73;;;;;;;10.68;47.04;94718.53;5071137;28;20032;-79
2024/04/03 00:52:55;;;;;;;1.60;0.60;;;;;;;10.75;47.71;94711.03;5074258;28;20498;-79
2024/04/03 00:55:21;;;;;;;2.15;0.65;;;;;;;10.72;47.76;94706.91;5056059;28;20456;-79
2024/04/03 00:57:46;;;;;;;1.17;0.50;;;;;;;10.59;47.21;94708.09;5070995;28;20039;-79
2024/04/03 01:00:12;;;;;;;1.27;0.60;;;;;;;10.47;48.62;94681.38;5072750;28;20039;-80
2024/04/03 01:02:37;;;;;;;1.02;0.50;;;;;;;10.51;48.55;94716.53;5055455;28;20035;-79
2024/04/03 01:05:03;;;;;;;0.88;0.45;;;;;;;10.23;48.25;94679.84;5055747;28;20518;-80
2024/04/03 01:07:28;;;;;;;3.53;0.57;;;;;;;10.42;47.52;94714.69;5070823;28;20028;-80
2024/04/03 01:09:54;;;;;;;1.17;0.52;;;;;;;10.38;49.16;94719.31;5055663;28;20530;-80
2024/04/03 01:12:19;;;;;;;1.02;0.50;;;;;;;10.23;48.63;94702.41;5055408;28;20028;-80
2024/04/03 01:14:44;;;;;;;1.20;0.50;;;;;;;10.24;49.17;94717.84;5071665;28;20040;-80
2024/04/03 01:17:10;;;;;;;0.80;0.50;;;;;;;10.32;48.99;94711.22;5054849;28;20028;-80
2024/04/03 01:19:35;;;;;;;0.60;0.40;;;;;;;10.06;49.84;94696.03;5072110;28;20052;-80
2024/04/03 01:22:01;;;;;;;3.20;0.60;;;;;;;9.46;49.49;94623.06;5073319;28;20505;-80
2024/04/03 01:24:26;;;;;;;0.82;0.50;;;;;;;10.01;50.43;94718.94;5071948;28;20040;-80
2024/04/03 01:26:52;;;;;;;0.90;0.40;;;;;;;9.90;49.91;94718.97;5055603;28;20256;-79
2024/04/03 01:29:17;;;;;;;1.60;0.40;;;;;;;9.85;51.43;94727.94;5073464;28;20048;-79
2024/04/03 01:31:42;;;;;;;1.30;0.50;;;;;;;9.67;50.42;94718.22;5073249;28;20021;-78
2024/04/03 01:34:08;;;;;;;0.80;0.40;;;;;;;9.73;51.89;94726.34;5034454;28;20490;-79
2024/04/03 01:36:33;;;;;;;5.93;0.63;;;;;;;9.70;51.37;94720.59;5053244;28;20180;-79
2024/04/03 01:38:59;;;;;;;1.42;0.50;;;;;;;9.71;51.41;94724.84;5053035;28;20030;-79
2024/04/03 01:41:24;;;;;;;1.17;0.45;;;;;;;9.48;51.37;94719.72;5053113;28;20032;-79
2024/04/03 01:43:49;;;;;;;0.82;0.45;;;;;;;9.27;52.29;94721.41;5066665;28;20498;-79
2024/04/03 01:46:15;;;;;;;0.88;0.50;;;;;;;9.38;51.76;94719.63;5054175;28;20037;-79
2024/04/03 01:48:40;;;;;;;1.10;0.57;;;;;;;9.03;52.76;94713.81;5035073;28;20029;-79
2024/04/03 01:51:06;;;;;;;1.85;0.50;;;;;;;9.30;53.67;94740.13;5034911;28;20064;-79
2024/04/03 01:53:31;;;;;;;1.30;0.50;;;;;;;8.94;54.06;94742.09;5052916;28;20108;-78
2024/04/03 01:55:57;;;;;;;1.52;0.50;;;;;;;9.00;54.07;94730.44;5035147;28;20025;-79
2024/04/03 01:58:23;;;;;;;2.28;0.52;;;;;;;8.90;53.66;94732.91;5068194;28;20040;-79
2024/04/03 02:00:49;;;;;;;0.95;0.50;;;;;;;8.71;54.54;94724.91;5035175;28;20417;-79
2024/04/03 02:03:15;;;;;;;0.73;0.50;;;;;;;8.87;54.91;94716.78;5035213;28;20171;-78
2024/04/03 02:05:43;;;;;;;0.90;0.50;;;;;;;8.66;53.92;94706.28;5051549;28;20040;-80
2024/04/03 02:08:09;;;;;;;1.42;0.50;;;;;;;8.78;54.71;94731.28;5052634;28;20091;-79
2024/04/03 02:10:35;;;;;;;0.85;0.40;;;;;;;8.62;54.79;94725.63;5062199;28;20049;-80
2024/04/03 02:13:00;;;;;;;1.10;0.50;;;;;;;7.96;56.32;94695.13;5072689;28;20025;-80
2024/04/03 02:15:25;;;;;;;0.93;0.40;;;;;;;8.41;56.50;94739.25;5054475;28;20044;-80
2024/04/03 02:17:51;;;;;;;0.68;0.40;;;;;;;8.33;55.62;94731.22;5072108;28;20025;-79
2024/04/03 02:20:16;;;;;;;1.02;0.57;;;;;;;8.24;55.81;94726.69;5050248;28;20457;-80
2024/04/03 02:22:42;;;;;;;2.00;0.50;;;;;;;8.10;56.82;94724.31;5051146;28;20415;-80
2024/04/03 02:25:07;;;;;;;0.93;0.50;;;;;;;7.77;57.12;94731.88;5052595;28;20025;-80
2024/04/03 02:27:32;;;;;;;0.70;0.40;;;;;;;8.08;57.58;94734.81;5052108;28;20033;-79
2024/04/03 02:29:58;;;;;;;1.90;0.50;;;;;;;8.07;57.41;94726.19;5054259;28;20113;-80
2024/04/03 02:32:23;;;;;;;1.35;0.50;;;;;;;7.82;57.31;94718.59;5070586;28;20025;-79
2024/04/03 02:34:53;;;;;;;1.02;0.50;;;;;;;7.67;58.70;94724.91;5054131;28;20036;-80
2024/04/03 02:37:19;;;;;;;0.82;0.45;;;;;;;7.55;59.05;94683.50;5062432;28;20041;-80
2024/04/03 02:39:44;;;;;;;1.05;0.50;;;;;;;7.72;58.52;94725.41;5050810;28;20059;-80
2024/04/03 02:42:09;;;;;;;1.13;0.45;;;;;;;7.49;57.93;94708.94;5050534;28;20403;-80
2024/04/03 02:44:35;;;;;;;1.08;0.50;;;;;;;7.45;59.66;94728.22;5037151;28;20041;-80
2024/04/03 02:47:00;;;;;;;0.88;0.47;;;;;;;7.33;58.69;94723.00;5070291;28;20028;-80
2024/04/03 02:49:25;;;;;;;1.63;0.50;;;;;;;7.23;58.70;94723.75;5070594;28;20032;-80
2024/04/03 02:51:51;;;;;;;0.93;0.50;;;;;;;7.32;59.30;94739.41;5070426;28;20031;-80
2024/04/03 02:54:16;;;;;;;0.90;0.40;;;;;;;7.42;59.40;94749.94;5070391;28;20059;-80
2024/04/03 02:56:42;;;;;;;2.00;0.60;;;;;;;7.37;58.57;94752.84;5070045;28;20032;-80
2024/04/03 02:59:07;;;;;;;2.13;0.70;;;;;;;7.23;59.25;94754.75;5070057;28;20036;-80
2024/04/03 03:01:32;;;;;;;0.70;0.40;;;;;;;7.10;59.53;94747.88;5071470;28;20027;-80
2024/04/03 03:04:00;;;;;;;0.60;0.40;;;;;;;7.08;58.57;94747.16;5068741;28;20405;-80
2024/04/03 03:06:25;;;;;;;1.75;0.73;;;;;;;7.38;57.97;94753.66;5070393;28;20039;-80
2024/04/03 03:08:50;;;;;;;1.13;0.50;;;;;;;7.43;58.53;94756.75;5054858;28;20107;-80
2024/04/03 03:11:16;;;;;;;1.00;0.57;;;;;;;7.50;58.80;94745.03;5048083;28;20036;-80
2024/04/03 03:13:41;;;;;;;1.77;0.70;;;;;;;7.29;59.20;94760.31;5049326;28;20025;-80
2024/04/03 03:16:07;;;;;;;1.00;0.60;;;;;;;7.32;59.57;94751.50;5050303;28;20029;-79
2024/04/03 03:18:35;;;;;;;1.17;0.60;;;;;;;7.42;59.61;94759.47;5052279;28;20049;-77
2024/04/03 03:21:00;;;;;;;1.00;0.50;;;;;;;7.27;58.67;94779.44;5045478;28;20085;-79
2024/04/03 03:23:26;;;;;;;1.75;0.50;;;;;;;7.09;58.63;94773.81;5036853;28;20413;-80
2024/04/03 03:25:51;;;;;;;0.70;0.40;;;;;;;7.00;59.30;94777.84;5036926;28;20036;-80
2024/04/03 03:28:17;;;;;;;1.02;0.52;;;;;;;6.90;59.23;94769.09;5036608;28;20494;-79
2024/04/03 03:30:47;;;;;;;1.30;0.60;;;;;;;6.76;59.76;94784.69;5044717;28;20042;-79
2024/04/03 03:33:12;;;;;;;0.80;0.50;;;;;;;6.80;60.36;94786.13;5066251;28;20533;-79
2024/04/03 03:35:38;;;;;;;1.67;1.10;;;;;;;6.97;60.00;94774.66;5083754;28;20033;-80
2024/04/03 03:38:03;;;;;;;1.13;0.60;;;;;;;6.82;60.01;94779.13;5087316;28;20032;-80
2024/04/03 03:40:30;;;;;;;1.60;0.82;;;;;;;6.81;60.95;94796.38;5056100;28;20036;-80
2024/04/03 03:42:56;;;;;;;3.45;1.45;;;;;;;6.76;60.37;94788.09;5063528;28;20035;-80
2024/04/03 03:45:21;;;;;;;3.70;1.30;;;;;;;6.76;60.38;94801.00;5076189;28;20421;-80
2024/04/03 03:47:47;;;;;;;2.45;1.02;;;;;;;6.68;60.71;94780.06;5072157;28;20411;-80
2024/04/03 03:52:56;;;;;;;1.27;0.60;;;;;;;6.90;61.56;94794.91;5091574;28;20035;-80
2024/04/03 03:55:22;;;;;;;0.95;0.50;;;;;;;6.79;59.90;94797.41;5072864;28;20036;-79
2024/04/03 03:57:47;;;;;;;0.75;0.50;;;;;;;6.77;60.02;94783.75;5072833;28;20039;-80
2024/04/03 04:00:13;;;;;;;1.02;0.70;;;;;;;6.83;60.37;94798.88;5056328;28;20028;-80
2024/04/03 04:02:38;;;;;;;0.70;0.40;;;;;;;6.89;60.20;94788.09;5072771;28;20478;-80
2024/04/03 04:05:04;;;;;;;0.95;0.55;;;;;;;7.01;59.05;94805.31;5063900;28;20078;-80
2024/04/03 04:07:29;;;;;;;0.77;0.40;;;;;;;7.00;58.57;94792.53;5090779;28;20105;-81
2024/04/03 04:09:55;;;;;;;1.00;0.50;;;;;;;6.97;58.57;94803.91;5068682;28;20031;-79
2024/04/03 04:12:20;;;;;;;1.10;0.50;;;;;;;7.15;59.73;94820.69;5041358;28;20414;-71
2024/04/03 04:14:50;;;;;;;0.70;0.40;;;;;;;7.25;58.00;94814.91;5095094;28;20105;-79
2024/04/03 04:17:15;;;;;;;2.95;0.98;;;;;;;7.14;58.42;94828.56;5042951;28;20540;-78
2024/04/03 04:19:41;;;;;;;1.65;0.90;;;;;;;6.97;58.91;94826.31;5056461;28;20056;-78
2024/04/03 04:22:06;;;;;;;2.20;0.82;;;;;;;7.08;59.56;94832.41;5071914;28;20043;-79
2024/04/03 04:24:33;;;;;;;2.17;0.90;;;;;;;7.34;59.43;94829.75;5074453;28;20559;-78
2024/04/03 04:27:01;;;;;;;1.25;0.70;;;;;;;7.18;57.45;94814.50;5073118;28;20028;-79
2024/04/03 04:29:28;;;;;;;2.28;0.60;;;;;;;7.27;57.43;94819.03;5073804;28;20032;-78
2024/04/03 04:31:53;;;;;;;1.05;0.50;;;;;;;7.31;57.01;94820.47;5023100;28;20032;-78
2024/04/03 04:34:19;;;;;;;1.02;0.60;;;;;;;7.22;56.81;94825.47;5054316;28;20090;-78
2024/04/03 04:36:44;;;;;;;2.95;0.50;;;;;;;7.44;57.34;94829.94;5055672;28;20036;-78
2024/04/03 04:39:09;;;;;;;1.10;0.47;;;;;;;7.27;57.41;94828.53;5063565;28;20032;-79
2024/04/03 04:41:35;;;;;;;2.00;0.50;;;;;;;7.15;56.48;94810.38;5054237;28;20079;-80
2024/04/03 04:44:01;;;;;;;0.75;0.40;;;;;;;7.26;56.14;94824.31;5063216;28;20021;-78
2024/04/03 04:46:27;;;;;;;1.17;0.70;;;;;;;7.43;56.09;94823.94;5054411;28;20480;-79
2024/04/03 04:48:52;;;;;;;0.75;0.50;;;;;;;7.35;56.05;94832.25;5036316;28;20132;-76
2024/04/03 04:51:19;;;;;;;2.45;0.50;;;;;;;7.42;56.31;94827.47;5046816;28;20028;-80
2024/04/03 04:53:45;;;;;;;0.60;0.40;;;;;;;7.35;56.51;94837.44;5061177;28;20090;-80
2024/04/03 04:56:10;;;;;;;1.58;0.60;;;;;;;7.35;56.24;94828.81;5057300;28;20040;-80
2024/04/03 04:58:36;;;;;;;0.70;0.40;;;;;;;7.83;55.16;94837.47;5059365;28;20032;-80
2024/04/03 05:01:05;;;;;;;1.23;0.70;;;;;;;8.41;54.35;94847.13;5052399;28;20041;-80
2024/04/03 05:03:31;;;;;;;3.83;1.20;;;;;;;8.89;53.46;94844.44;5053597;28;20041;-80
2024/04/03 05:05:56;;;;;;;3.25;1.23;;;;;;;9.89;50.87;94849.66;5052779;28;20037;-81
2024/04/03 05:08:22;;;;;;;5.35;2.90;;;;;;;10.91;48.88;94850.88;5053438;28;20021;-79
2024/04/03 05:10:51;;;;;;;4.32;1.60;;;;;;;11.84;46.28;94860.31;5052604;28;20031;-80
2024/04/03 05:13:18;;;;;;;11.90;5.07;;;;;;;12.39;45.29;94865.88;5039057;28;20055;-80
2024/04/03 05:15:45;;;;;;;5.47;1.70;;;;;;;13.94;42.37;94858.63;5053833;28;20033;-81
2024/04/03 05:18:13;;;;;;;2.67;1.30;;;;;;;14.06;41.19;94860.06;5060877;28;20033;-81
2024/04/03 05:20:40;;;;;;;3.38;1.23;;;;;;;15.27;39.17;94852.63;5040232;28;20040;-81
2024/04/03 05:23:05;;;;;;;2.75;1.30;;;;;;;15.56;37.75;94839.97;5039114;28;20029;-80
2024/04/03 05:25:31;;;;;;;10.50;5.07;;;;;;;14.81;39.32;94836.28;5042342;28;20403;-81
2024/04/03 05:27:56;;;;;;;7.13;2.00;;;;;;;15.84;37.42;94855.50;5044356;28;20411;-79
2024/04/03 05:30:21;;;;;;;3.03;1.27;;;;;;;15.62;38.01;94846.38;5051419;28;20029;-81
2024/04/03 05:32:47;;;;;;;2.45;1.00;;;;;;;15.12;39.70;94861.00;5057404;28;20029;-81
2024/04/03 05:35:15;;;;;;;3.90;1.13;;;;;;;14.21;41.83;94858.59;5072716;28;20121;-81
2024/04/03 05:37:40;;;;;;;1.98;0.98;;;;;;;14.08;41.55;94840.66;5053149;28;20029;-81
2024/04/03 05:40:06;;;;;;;3.05;1.08;;;;;;;13.75;43.09;94843.91;5055069;28;20024;-81
2024/04/03 05:42:32;;;;;;;4.00;1.40;;;;;;;13.59;43.94;94834.06;5063142;28;20075;-81
2024/04/03 05:44:58;;;;;;;6.07;1.40;;;;;;;13.63;43.40;94840.66;5054813;28;20040;-81
2024/04/03 05:47:23;;;;;;;4.00;1.45;;;;;;;13.60;43.65;94848.78;5069385;28;20090;-81
2024/04/03 05:49:53;;;;;;;12.02;4.07;;;;;;;12.57;44.69;94858.22;5053823;28;20494;-81
2024/04/03 05:52:19;;;;;;;3.97;1.40;;;;;;;12.42;44.84;94844.75;5069273;28;20486;-81
2024/04/03 05:54:46;;;;;;;2.75;1.20;;;;;;;12.83;44.13;94855.84;5065662;28;20090;-82
2024/04/03 05:57:12;;;;;;;3.95;1.48;;;;;;;12.56;44.73;94856.53;5053362;28;20526;-81
2024/04/03 05:59:37;;;;;;;3.65;1.30;;;;;;;12.53;45.14;94870.66;5034649;28;20043;-81
2024/04/03 06:02:32;;;;;;;3.95;1.50;;;;;;;12.63;44.21;94864.66;5059726;28;20024;-81
2024/04/03 06:04:58;;;;;;;3.80;1.25;;;;;;;12.87;44.40;94859.81;5059709;28;20052;-81
2024/04/03 06:07:23;;;;;;;3.42;0.98;;;;;;;13.10;44.30;94856.91;5049520;28;20021;-81
2024/04/03 06:09:49;;;;;;;4.22;1.05;;;;;;;13.18;43.67;94870.06;5064660;28;20039;-81
2024/04/03 06:12:14;;;;;;;2.72;1.23;;;;;;;13.04;43.75;94866.09;5054737;28;20029;-81
2024/04/03 06:14:40;;;;;;;6.00;1.10;;;;;;;13.13;43.55;94859.22;5045213;28;20044;-81
2024/04/03 06:17:05;;;;;;;3.30;1.20;;;;;;;13.53;42.87;94879.84;5041366;28;20032;-81
2024/04/03 06:19:31;;;;;;;2.97;0.77;;;;;;;13.42;43.45;94874.81;5049388;28;20109;-82
2024/04/03 06:21:56;;;;;;;8.48;1.35;;;;;;;12.70;45.35;94857.91;5066379;28;20081;-81
2024/04/03 06:24:21;;;;;;;4.18;1.30;;;;;;;12.33;46.78;94868.22;5063054;28;20601;-81
2024/04/03 06:26:47;;;;;;;6.63;1.60;;;;;;;12.13;47.18;94844.75;5055124;28;20536;-80
2024/04/03 06:29:12;;;;;;;3.53;1.63;;;;;;;12.17;47.51;94872.16;5044806;28;20469;-81
2024/04/03 06:31:38;;;;;;;1.55;0.90;;;;;;;12.14;47.24;94866.41;5038431;28;20021;-81
2024/04/03 06:34:03;;;;;;;3.40;1.50;;;;;;;12.31;47.58;94878.75;5058765;28;20031;-81
2024/04/03 06:36:29;;;;;;;4.78;1.55;;;;;;;12.42;47.45;94870.00;5045855;28;20410;-75
2024/04/03 06:38:55;;;;;;;5.07;1.38;;;;;;;12.49;47.14;94860.69;5067935;28;20032;-80
2024/04/03 06:41:20;;;;;;;3.47;1.10;;;;;;;12.56;46.87;94860.94;5057394;28;20506;-82
2024/04/03 06:43:45;;;;;;;1.58;0.70;;;;;;;12.26;44.83;94842.72;5051753;28;20079;-78
2024/04/03 06:46:11;;;;;;;3.08;0.95;;;;;;;13.09;44.65;94869.13;5056074;28;20489;-75
2024/04/03 06:48:36;;;;;;;3.13;1.50;;;;;;;13.14;44.38;94866.88;5070200;28;20492;-72
2024/04/03 06:51:03;;;;;;;1.90;1.02;;;;;;;13.12;42.94;94875.81;5069927;28;20029;-80
2024/04/03 06:53:29;;;;;;;1.95;0.95;;;;;;;13.58;42.34;94874.19;5071317;28;20486;-81
2024/04/03 06:56:01;;;;;;;6.50;2.78;;;;;;;13.41;41.18;94871.38;5058281;28;20037;-80
2024/04/03 06:58:27;;;;;;;4.55;2.63;;;;;;;13.32;41.65;94853.97;5053258;28;20334;-78
2024/04/03 07:00:53;;;;;;;1.85;1.02;;;;;;;13.32;41.52;94869.63;5030399;28;20029;-78
2024/04/03 07:03:18;;;;;;;2.72;1.92;;;;;;;13.40;41.99;94884.59;5057443;28;20090;-78
2024/04/03 07:05:44;;;;;;;6.43;1.33;;;;;;;13.26;41.30;94885.84;5056940;28;20043;-77
2024/04/03 07:08:12;;;;;;;1.60;0.70;;;;;;;13.54;40.69;94878.03;5066189;28;20067;-74
2024/04/03 07:10:38;;;;;;;7.35;1.20;;;;;;;13.94;39.37;94876.91;5068200;28;20421;-77
2024/04/03 07:13:04;;;;;;;1.60;0.80;;;;;;;13.75;39.40;94839.50;5067939;28;20029;-76
2024/04/03 07:15:31;;;;;;;2.85;1.50;;;;;;;13.84;40.16;94877.78;5061831;28;20302;-76
2024/04/03 07:17:56;;;;;;;4.90;1.63;;;;;;;14.39;39.30;94884.72;5012409;28;20128;-76
2024/04/03 07:20:25;;;;;;;3.38;1.10;;;;;;;14.12;39.67;94871.72;5029713;28;20040;-77
2024/04/03 07:22:54;;;;;;;2.20;0.90;;;;;;;14.39;39.85;94855.16;5046930;28;20067;-76
2024/04/03 07:25:19;;;;;;;3.03;0.82;;;;;;;14.83;38.60;94870.94;5049327;28;20033;-77
2024/04/03 07:27:45;;;;;;;2.97;0.80;;;;;;;14.80;38.57;94881.72;5049042;28;20037;-76
2024/04/03 07:30:11;;;;;;;3.15;1.00;;;;;;;14.53;39.26;94897.31;5015025;28;20036;-76
2024/04/03 07:32:36;;;;;;;4.18;1.17;;;;;;;14.41;38.93;94890.63;5049315;28;20020;-76
2024/04/03 07:35:02;;;;;;;3.92;1.30;;;;;;;14.42;39.05;94891.47;5031228;28;20032;-76
2024/04/03 07:37:27;;;;;;;4.45;0.85;;;;;;;14.07;38.92;94874.78;5048761;28;20057;-76
2024/04/03 07:39:53;;;;;;;3.55;0.90;;;;;;;14.39;38.70;94876.06;5031305;28;20029;-77
2024/04/03 07:42:18;;;;;;;2.33;0.90;;;;;;;14.56;37.82;94871.84;5031422;28;20418;-76
2024/04/03 07:44:45;;;;;;;1.70;0.90;;;;;;;14.93;38.37;94874.28;5048003;28;20049;-76
2024/04/03 07:47:10;;;;;;;2.90;1.00;;;;;;;14.53;38.77;94865.13;5032879;28;20044;-76
2024/04/03 07:49:35;;;;;;;3.15;1.17;;;;;;;14.31;38.62;94866.38;5032920;28;20044;-76
2024/04/03 07:52:01;;;;;;;3.70;1.00;;;;;;;14.98;37.07;94864.19;5032838;28;20025;-76
2024/04/03 07:54:26;;;;;;;5.45;2.13;;;;;;;14.93;37.47;94867.28;5032901;28;20501;-76
2024/04/03 07:56:52;;;;;;;3.63;1.20;;;;;;;15.31;35.96;94867.00;5049591;28;20458;-76
2024/04/03 07:59:17;;;;;;;6.18;1.42;;;;;;;15.10;37.40;94872.59;5049300;28;20025;-77
2024/04/03 08:01:43;;;;;;;4.78;1.33;;;;;;;15.03;37.23;94861.13;5050691;28;20036;-76
2024/04/03 08:04:09;;;;;;;2.63;1.10;;;;;;;14.98;37.21;94885.09;5050578;28;20032;-76
2024/04/03 08:06:35;;;;;;;9.85;1.58;;;;;;;15.35;36.51;94865.72;5032886;28;20087;-76
2024/04/03 08:09:00;;;;;;;6.28;1.98;;;;;;;15.35;36.70;94860.47;5049736;28;20021;-75
2024/04/03 08:11:25;;;;;;;7.15;1.58;;;;;;;15.43;37.28;94876.22;5049346;28;20091;-76
2024/04/03 08:13:52;;;;;;;5.85;1.58;;;;;;;15.68;38.13;94864.13;5049806;28;20032;-76
2024/04/03 08:16:17;;;;;;;2.90;1.27;;;;;;;15.79;38.77;94874.31;5049367;28;20032;-76
2024/04/03 08:18:44;;;;;;;3.17;1.08;;;;;;;15.70;38.11;94874.44;5049298;28;20485;-76
2024/04/03 08:21:10;;;;;;;1.92;0.88;;;;;;;15.84;36.96;94879.09;5049503;28;20072;-77
2024/04/03 08:23:36;;;;;;;3.03;1.00;;;;;;;15.69;37.05;94862.34;5049359;28;20053;-77
2024/04/03 08:26:08;;;;;;;2.88;1.00;;;;;;;15.98;37.55;94875.06;5032794;28;20033;-77
2024/04/03 08:28:41;;;;;;;3.30;1.10;;;;;;;15.61;37.04;94877.00;5032688;28;20025;-77
2024/04/03 08:31:12;;;;;;;4.22;1.17;;;;;;;16.33;35.74;94873.19;5051224;28;20541;-77
2024/04/03 08:33:38;;;;;;;4.25;0.90;;;;;;;16.78;36.37;94864.91;5050469;28;20483;-78
2024/04/03 08:36:04;;;;;;;5.85;1.30;;;;;;;16.13;35.56;94859.53;5049245;28;20040;-78
2024/04/03 08:38:29;;;;;;;3.22;1.05;;;;;;;16.30;35.52;94866.47;5049269;28;20052;-76
2024/04/03 08:40:55;;;;;;;2.80;0.95;;;;;;;16.51;35.00;94864.19;5049361;28;20041;-77
2024/04/03 08:43:22;;;;;;;2.85;1.25;;;;;;;16.34;35.98;94877.44;5032432;28;20510;-77
2024/04/03 08:45:48;;;;;;;2.95;0.88;;;;;;;16.01;34.58;94870.31;5032702;28;20403;-77
2024/04/03 08:48:13;;;;;;;2.30;0.80;;;;;;;15.74;34.69;94865.28;5049329;28;20037;-77
2024/04/03 08:50:39;;;;;;;4.60;1.00;;;;;;;15.82;34.54;94858.31;5032436;28;20494;-78
2024/04/03 08:53:04;;;;;;;7.18;1.10;;;;;;;16.27;34.10;94857.13;5032459;28;20040;-78
2024/04/03 08:55:31;;;;;;;5.55;1.00;;;;;;;16.36;34.61;94857.16;5033474;28;20430;-77
2024/04/03 08:57:56;;;;;;;2.50;1.00;;;;;;;16.14;34.23;94862.00;5052810;28;20033;-77
2024/04/03 09:00:25;;;;;;;3.72;1.00;;;;;;;16.12;35.00;94857.91;5052879;28;20040;-77
2024/04/03 09:02:57;;;;;;;4.03;1.10;;;;;;;16.16;33.91;94851.34;5052897;28;20029;-77
2024/04/03 09:05:23;;;;;;;3.70;1.05;;;;;;;16.58;33.34;94838.16;5035906;28;20069;-77
2024/04/03 09:07:58;;;;;;;4.25;1.10;;;;;;;16.47;33.21;94859.47;5035951;28;20108;-77
2024/04/03 09:10:54;;;;;;;2.92;1.00;;;;;;;16.65;33.16;94854.06;5036203;28;20037;-77
2024/04/03 09:13:20;;;;;;;5.10;1.10;;;;;;;16.78;32.59;94859.66;5050848;28;20036;-77
2024/04/03 09:15:46;;;;;;;2.53;0.90;;;;;;;16.33;33.47;94845.19;5052480;28;20032;-77
2024/04/03 09:18:11;;;;;;;3.80;0.95;;;;;;;16.07;33.00;94856.59;5038960;28;20289;-77
2024/04/03 09:20:40;;;;;;;3.15;1.05;;;;;;;16.13;33.47;94864.78;5055892;28;20032;-78
2024/04/03 09:23:08;;;;;;;3.35;1.00;;;;;;;15.92;33.97;94868.66;5039063;28;20028;-76
2024/04/03 09:25:34;;;;;;;2.75;1.00;;;;;;;16.18;34.37;94846.78;5055987;28;20041;-77
2024/04/03 09:28:04;;;;;;;4.97;1.00;;;;;;;16.72;33.05;94862.91;5055571;28;20482;-77
2024/04/03 09:30:30;;;;;;;3.33;1.00;;;;;;;16.29;33.24;94852.53;5038700;28;20040;-77
2024/04/03 09:32:59;;;;;;;5.10;0.90;;;;;;;16.18;33.32;94857.25;5055513;28;20040;-76
2024/04/03 09:35:30;;;;;;;6.97;0.90;;;;;;;16.14;33.12;94842.84;5073384;28;20537;-77
2024/04/03 09:37:56;;;;;;;3.00;0.77;;;;;;;16.08;33.30;94842.50;5039328;28;20028;-78
2024/04/03 09:40:26;;;;;;;2.58;0.80;;;;;;;16.32;32.69;94840.91;5038786;28;20391;-77
2024/04/03 09:43:01;;;;;;;3.58;0.82;;;;;;;16.11;32.53;94825.63;5055185;28;20469;-76
2024/04/03 09:45:27;;;;;;;4.15;0.80;;;;;;;16.54;32.12;94842.88;5072836;28;20029;-77
2024/04/03 09:48:22;;;;;;;3.00;0.80;;;;;;;17.01;31.34;94838.00;5072964;28;20410;-77
2024/04/03 09:50:47;;;;;;;2.30;0.90;;;;;;;17.00;31.43;94836.38;5071144;28;20048;-77
2024/04/03 09:53:18;;;;;;;1.60;0.77;;;;;;;17.00;30.90;94836.38;5072819;28;20025;-78
2024/04/03 09:55:44;;;;;;;1.80;0.73;;;;;;;16.96;31.74;94839.31;5022122;28;20032;-77
2024/04/03 09:58:11;;;;;;;2.13;0.80;;;;;;;16.54;31.68;94816.66;5038131;28;20047;-77
2024/04/03 10:00:39;;;;;;;1.50;0.70;;;;;;;16.94;31.32;94838.69;5038383;28;20081;-77
2024/04/03 10:03:05;;;;;;;3.28;0.70;;;;;;;17.20;30.07;94800.91;5072880;28;20028;-76
2024/04/03 10:05:40;;;;;;;2.70;0.68;;;;;;;17.42;30.44;94821.19;5054754;28;20028;-76
2024/04/03 10:08:10;;;;;;;4.65;0.80;;;;;;;16.86;30.99;94807.19;5071836;28;20047;-77
2024/04/03 10:10:35;;;;;;;2.47;0.83;;;;;;;17.01;29.70;94812.59;5072851;28;20047;-76
2024/04/03 10:13:00;;;;;;;2.08;0.70;;;;;;;17.15;30.41;94803.22;5021632;28;20279;-76
2024/04/03 10:15:29;;;;;;;2.38;0.77;;;;;;;16.86;30.43;94812.44;5037782;28;20038;-77
2024/04/03 10:18:02;;;;;;;2.45;0.80;;;;;;;16.87;30.68;94803.59;5037239;28;20044;-76
2024/04/03 10:20:38;;;;;;;2.40;0.70;;;;;;;17.31;30.47;94805.00;5034910;28;20387;-77
2024/04/03 10:23:10;;;;;;;2.70;0.70;;;;;;;16.89;28.94;94804.25;5034513;28;20021;-77
2024/04/03 10:25:39;;;;;;;4.85;0.70;;;;;;;17.41;29.30;94810.84;5035160;28;20047;-77
2024/04/03 10:28:14;;;;;;;1.70;0.63;;;;;;;17.94;27.94;94803.28;5034336;28;20036;-77
2024/04/03 10:30:40;;;;;;;4.45;0.60;;;;;;;18.28;26.92;94803.75;5034583;28;20036;-77
2024/04/03 10:33:05;;;;;;;2.10;0.57;;;;;;;18.54;25.61;94806.00;5050958;28;20025;-76
2024/04/03 10:35:31;;;;;;;2.85;0.70;;;;;;;18.56;26.60;94799.78;5050993;28;20036;-77
2024/04/03 10:37:59;;;;;;;1.73;0.70;;;;;;;18.22;24.91;94814.97;5050865;28;20083;-77
2024/04/03 10:40:25;;;;;;;3.28;0.60;;;;;;;18.44;24.71;94804.59;5034553;28;20037;-77
2024/04/03 10:42:51;;;;;;;1.15;0.50;;;;;;;18.35;24.49;94803.84;5050709;28;20032;-76
2024/04/03 10:45:16;;;;;;;4.65;0.52;;;;;;;18.45;24.29;94801.81;5051979;28;20112;-76
2024/04/03 10:47:43;;;;;;;1.35;0.68;;;;;;;18.42;25.35;94802.16;5051711;28;20017;-77
2024/04/03 10:50:09;;;;;;;1.92;0.70;;;;;;;18.67;24.78;94800.16;5050472;28;20080;-77
2024/04/03 10:52:35;;;;;;;2.17;0.60;;;;;;;18.87;24.81;94802.34;5033840;28;20037;-76
2024/04/03 10:55:01;;;;;;;1.52;0.47;;;;;;;19.05;24.24;94797.53;5050566;28;20047;-76
2024/04/03 10:57:27;;;;;;;2.15;0.68;;;;;;;18.49;24.50;94770.72;5050337;28;20163;-76
2024/04/03 10:59:55;;;;;;;1.60;0.50;;;;;;;18.49;24.93;94784.66;5033794;28;20469;-76
2024/04/03 11:02:21;;;;;;;2.15;0.60;;;;;;;18.75;24.77;94776.44;5033977;28;20082;-76
2024/04/03 11:04:48;;;;;;;1.55;0.60;;;;;;;18.63;25.11;94766.50;5052980;28;20036;-77
2024/04/03 11:07:14;;;;;;;1.45;0.60;;;;;;;18.20;25.40;94777.50;5035118;28;20033;-76
2024/04/03 11:09:40;;;;;;;1.70;0.50;;;;;;;18.52;24.87;94781.69;5047578;28;20090;-81
2024/04/03 11:12:09;;;;;;;3.22;0.65;;;;;;;18.65;24.20;94753.97;5033701;28;20041;-78
2024/04/03 11:14:35;;;;;;;2.97;0.77;;;;;;;18.48;24.66;94735.72;5065124;28;20044;-73
2024/04/03 11:17:01;;;;;;;2.28;0.80;;;;;;;18.49;25.65;94734.69;5049957;28;20055;-80
2024/04/03 11:19:27;;;;;;;2.20;0.60;;;;;;;18.73;24.63;94723.16;5033252;28;20515;-78
2024/04/03 11:21:52;;;;;;;1.70;0.50;;;;;;;18.46;24.58;94740.31;5051039;28;20060;-78
2024/04/03 11:24:17;;;;;;;1.05;0.47;;;;;;;18.57;24.27;94731.19;5050017;28;20415;-78
2024/04/03 11:26:43;;;;;;;1.98;0.68;;;;;;;18.73;24.22;94724.97;5050024;28;20029;-77
2024/04/03 11:29:30;;;;;;;1.65;0.50;;;;;;;18.79;24.24;94715.56;5037606;28;20036;-78
2024/04/03 11:31:56;;;;;;;1.63;0.80;;;;;;;18.18;25.38;94732.16;5065844;28;20082;-78
2024/04/03 11:34:21;;;;;;;4.95;1.45;;;;;;;17.86;25.87;94706.94;5069539;28;20036;-79
2024/04/03 11:36:47;;;;;;;1.58;0.68;;;;;;;18.38;26.08;94706.19;5066396;28;20032;-78